SJA weather

Public forecast

Using degrees Celsius for public forecast. Weather courtesy of forecast.io.

Closest aviation weather report (METAR) to San Juan Aeroclub Airport

Report is more than 6 hours old.

Closest report is Domingo Faustino Sarmiento Airport, 6.9 nm (12.7 km) ENE. Retrieved 2020/08/12 11:10 UTC (3 days ago):

SANU 121110Z 00000KT 3000 FU NSC M04/M12 Q1016

Closest aviation forecast (TAF) to San Juan Aeroclub Airport

Forecast is more than 12 hours old.

Closest forecast is Domingo Faustino Sarmiento Airport, 6.9 nm (12.7 km) ENE. Retrieved 2020/07/27 06:09 UTC (19 days ago):

TAF SANU 270500Z 2706/2806 18012KT CAVOK TX17/2719Z TN02/2711Z BECMG 2716/2718 18015G30KT BECMG 2721/2723 18010KT